sensor_id;sensor_type;location;lat;lon;timestamp;pressure;altitude;pressure_sealevel;temperature;humidity
7832;BME280;3961;42.058;25.586;2023-12-20T00:00:13;100944.22;;;2.76;100.00
7832;BME280;3961;42.058;25.586;2023-12-20T00:02:39;100929.31;;;2.54;100.00
7832;BME280;3961;42.058;25.586;2023-12-20T00:05:05;100934.22;;;2.69;100.00
7832;BME280;3961;42.058;25.586;2023-12-20T00:07:30;100925.28;;;2.68;100.00
7832;BME280;3961;42.058;25.586;2023-12-20T00:09:56;100930.28;;;2.63;100.00
7832;BME280;3961;42.058;25.586;2023-12-20T00:12:22;100922.84;;;2.75;100.00
7832;BME280;3961;42.058;25.586;2023-12-20T00:14:47;100918.06;;;2.69;100.00
7832;BME280;3961;42.058;25.586;2023-12-20T00:17:13;100876.91;;;2.59;100.00
7832;BME280;3961;42.058;25.586;2023-12-20T00:19:38;100904.41;;;2.80;100.00
7832;BME280;3961;42.058;25.586;2023-12-20T00:22:04;100910.09;;;2.49;100.00
7832;BME280;3961;42.058;25.586;2023-12-20T00:24:29;100914.53;;;2.41;100.00
7832;BME280;3961;42.058;25.586;2023-12-20T00:26:55;100906.06;;;2.63;100.00
7832;BME280;3961;42.058;25.586;2023-12-20T00:29:20;100917.03;;;2.70;100.00
7832;BME280;3961;42.058;25.586;2023-12-20T00:31:46;100899.91;;;2.71;100.00
7832;BME280;3961;42.058;25.586;2023-12-20T00:34:11;100906.44;;;2.68;100.00
7832;BME280;3961;42.058;25.586;2023-12-20T00:36:37;100902.50;;;2.63;100.00
7832;BME280;3961;42.058;25.586;2023-12-20T00:39:02;100897.00;;;2.64;100.00
7832;BME280;3961;42.058;25.586;2023-12-20T00:41:28;100900.75;;;2.53;100.00
7832;BME280;3961;42.058;25.586;2023-12-20T00:43:54;100900.03;;;2.51;100.00
7832;BME280;3961;42.058;25.586;2023-12-20T00:46:19;100906.00;;;2.45;100.00
7832;BME280;3961;42.058;25.586;2023-12-20T00:48:45;100906.41;;;2.50;100.00
7832;BME280;3961;42.058;25.586;2023-12-20T00:51:11;100898.53;;;2.39;100.00
7832;BME280;3961;42.058;25.586;2023-12-20T00:53:36;100884.81;;;2.33;100.00
7832;BME280;3961;42.058;25.586;2023-12-20T00:56:02;100890.50;;;2.30;100.00
7832;BME280;3961;42.058;25.586;2023-12-20T00:58:27;100892.00;;;2.15;100.00
7832;BME280;3961;42.058;25.586;2023-12-20T01:00:53;100885.19;;;2.20;100.00
7832;BME280;3961;42.058;25.586;2023-12-20T01:03:19;100869.19;;;2.19;100.00
7832;BME280;3961;42.058;25.586;2023-12-20T01:05:45;100876.66;;;2.25;100.00
7832;BME280;3961;42.058;25.586;2023-12-20T01:08:10;100879.25;;;2.17;100.00
7832;BME280;3961;42.058;25.586;2023-12-20T01:10:36;100881.94;;;2.17;100.00
7832;BME280;3961;42.058;25.586;2023-12-20T01:13:01;100869.88;;;2.21;100.00
7832;BME280;3961;42.058;25.586;2023-12-20T01:15:27;100854.75;;;2.20;100.00
7832;BME280;3961;42.058;25.586;2023-12-20T01:17:52;100861.09;;;2.19;100.00
7832;BME280;3961;42.058;25.586;2023-12-20T01:20:18;100858.22;;;2.30;100.00
7832;BME280;3961;42.058;25.586;2023-12-20T01:22:45;100855.44;;;2.22;100.00
7832;BME280;3961;42.058;25.586;2023-12-20T01:25:11;100848.91;;;2.24;100.00
7832;BME280;3961;42.058;25.586;2023-12-20T01:27:37;100849.69;;;2.17;100.00
7832;BME280;3961;42.058;25.586;2023-12-20T01:30:03;100837.22;;;2.16;100.00
7832;BME280;3961;42.058;25.586;2023-12-20T01:32:29;100835.84;;;2.29;100.00
7832;BME280;3961;42.058;25.586;2023-12-20T01:34:55;100839.25;;;2.31;100.00
7832;BME280;3961;42.058;25.586;2023-12-20T01:37:20;100835.66;;;2.40;100.00
7832;BME280;3961;42.058;25.586;2023-12-20T01:39:46;100838.34;;;2.40;100.00
7832;BME280;3961;42.058;25.586;2023-12-20T01:42:12;100836.72;;;2.30;100.00
7832;BME280;3961;42.058;25.586;2023-12-20T01:44:37;100842.94;;;2.30;100.00
7832;BME280;3961;42.058;25.586;2023-12-20T01:47:03;100832.50;;;2.27;100.00
7832;BME280;3961;42.058;25.586;2023-12-20T01:49:28;100826.09;;;2.28;100.00
7832;BME280;3961;42.058;25.586;2023-12-20T01:51:54;100819.19;;;2.26;100.00
7832;BME280;3961;42.058;25.586;2023-12-20T01:54:20;100815.50;;;2.27;100.00
7832;BME280;3961;42.058;25.586;2023-12-20T01:56:46;100797.81;;;2.24;100.00
7832;BME280;3961;42.058;25.586;2023-12-20T01:59:12;100804.75;;;2.27;100.00
7832;BME280;3961;42.058;25.586;2023-12-20T02:01:37;100804.16;;;2.05;100.00
7832;BME280;3961;42.058;25.586;2023-12-20T02:04:03;100794.72;;;1.92;100.00
7832;BME280;3961;42.058;25.586;2023-12-20T02:06:30;100782.50;;;1.70;100.00
7832;BME280;3961;42.058;25.586;2023-12-20T02:08:58;100790.31;;;2.00;100.00
7832;BME280;3961;42.058;25.586;2023-12-20T02:11:25;100804.94;;;2.16;100.00
7832;BME280;3961;42.058;25.586;2023-12-20T02:13:51;100794.72;;;2.19;100.00
7832;BME280;3961;42.058;25.586;2023-12-20T02:16:16;100789.03;;;2.22;100.00
7832;BME280;3961;42.058;25.586;2023-12-20T02:18:43;100784.34;;;2.24;100.00
7832;BME280;3961;42.058;25.586;2023-12-20T02:21:10;100776.69;;;2.02;100.00
7832;BME280;3961;42.058;25.586;2023-12-20T02:23:35;100777.06;;;1.89;100.00
7832;BME280;3961;42.058;25.586;2023-12-20T02:26:02;100782.88;;;1.85;100.00
7832;BME280;3961;42.058;25.586;2023-12-20T02:28:28;100774.38;;;1.89;100.00
7832;BME280;3961;42.058;25.586;2023-12-20T02:30:54;100756.94;;;1.93;100.00
7832;BME280;3961;42.058;25.586;2023-12-20T02:33:19;100770.06;;;1.96;100.00
7832;BME280;3961;42.058;25.586;2023-12-20T02:35:45;100765.16;;;1.92;100.00
7832;BME280;3961;42.058;25.586;2023-12-20T02:38:10;100761.91;;;1.88;100.00
7832;BME280;3961;42.058;25.586;2023-12-20T02:40:36;100760.69;;;1.83;100.00
7832;BME280;3961;42.058;25.586;2023-12-20T02:43:02;100756.00;;;1.85;100.00
7832;BME280;3961;42.058;25.586;2023-12-20T02:45:27;100750.63;;;1.85;100.00
7832;BME280;3961;42.058;25.586;2023-12-20T02:47:53;100752.56;;;1.92;100.00
7832;BME280;3961;42.058;25.586;2023-12-20T02:50:18;100754.59;;;1.81;100.00
7832;BME280;3961;42.058;25.586;2023-12-20T02:52:47;100755.03;;;1.76;100.00
7832;BME280;3961;42.058;25.586;2023-12-20T02:55:12;100750.66;;;1.75;100.00
7832;BME280;3961;42.058;25.586;2023-12-20T02:57:38;100751.69;;;1.74;100.00
7832;BME280;3961;42.058;25.586;2023-12-20T03:00:10;100745.84;;;1.79;100.00
7832;BME280;3961;42.058;25.586;2023-12-20T03:02:36;100735.94;;;1.79;100.00
7832;BME280;3961;42.058;25.586;2023-12-20T03:05:03;100733.53;;;1.76;100.00
7832;BME280;3961;42.058;25.586;2023-12-20T03:07:28;100721.94;;;1.76;100.00
7832;BME280;3961;42.058;25.586;2023-12-20T03:09:54;100724.22;;;1.70;100.00
7832;BME280;3961;42.058;25.586;2023-12-20T03:12:19;100728.00;;;1.50;100.00
7832;BME280;3961;42.058;25.586;2023-12-20T03:14:45;100738.47;;;1.53;100.00
7832;BME280;3961;42.058;25.586;2023-12-20T03:17:11;100731.00;;;1.47;100.00
7832;BME280;3961;42.058;25.586;2023-12-20T03:19:36;100722.16;;;1.27;100.00
7832;BME280;3961;42.058;25.586;2023-12-20T03:22:02;100725.44;;;1.58;100.00
7832;BME280;3961;42.058;25.586;2023-12-20T03:24:27;100721.34;;;1.54;100.00
7832;BME280;3961;42.058;25.586;2023-12-20T03:26:53;100713.66;;;1.69;100.00
7832;BME280;3961;42.058;25.586;2023-12-20T03:29:18;100711.78;;;1.69;100.00
7832;BME280;3961;42.058;25.586;2023-12-20T03:31:44;100720.09;;;1.49;100.00
7832;BME280;3961;42.058;25.586;2023-12-20T03:34:10;100717.97;;;1.52;100.00
7832;BME280;3961;42.058;25.586;2023-12-20T03:36:35;100719.06;;;1.59;100.00
7832;BME280;3961;42.058;25.586;2023-12-20T03:39:01;100721.00;;;1.67;100.00
7832;BME280;3961;42.058;25.586;2023-12-20T03:41:26;100714.59;;;1.78;100.00
7832;BME280;3961;42.058;25.586;2023-12-20T03:43:52;100703.00;;;1.77;100.00
7832;BME280;3961;42.058;25.586;2023-12-20T03:46:17;100697.53;;;1.69;100.00
7832;BME280;3961;42.058;25.586;2023-12-20T03:48:43;100694.31;;;1.83;100.00
7832;BME280;3961;42.058;25.586;2023-12-20T03:51:08;100700.38;;;1.85;100.00
7832;BME280;3961;42.058;25.586;2023-12-20T03:53:34;100687.97;;;1.84;100.00
7832;BME280;3961;42.058;25.586;2023-12-20T03:55:59;100695.19;;;1.84;100.00
7832;BME280;3961;42.058;25.586;2023-12-20T03:58:25;100696.63;;;1.78;100.00
7832;BME280;3961;42.058;25.586;2023-12-20T04:00:50;100708.97;;;1.71;100.00
7832;BME280;3961;42.058;25.586;2023-12-20T04:03:16;100705.69;;;1.77;100.00
7832;BME280;3961;42.058;25.586;2023-12-20T04:05:41;100705.47;;;1.61;100.00
7832;BME280;3961;42.058;25.586;2023-12-20T04:08:07;100705.13;;;1.46;100.00
7832;BME280;3961;42.058;25.586;2023-12-20T04:10:33;100664.50;;;1.32;100.00
7832;BME280;3961;42.058;25.586;2023-12-20T04:12:58;100708.75;;;1.55;100.00
7832;BME280;3961;42.058;25.586;2023-12-20T04:15:24;100702.91;;;1.69;100.00
7832;BME280;3961;42.058;25.586;2023-12-20T04:17:49;100699.66;;;1.65;100.00
7832;BME280;3961;42.058;25.586;2023-12-20T04:20:15;100701.44;;;1.75;100.00
7832;BME280;3961;42.058;25.586;2023-12-20T04:22:40;100702.91;;;1.69;100.00
7832;BME280;3961;42.058;25.586;2023-12-20T04:25:07;100706.06;;;1.55;100.00
7832;BME280;3961;42.058;25.586;2023-12-20T04:27:33;100709.31;;;1.58;100.00
7832;BME280;3961;42.058;25.586;2023-12-20T04:29:59;100714.06;;;1.64;100.00
7832;BME280;3961;42.058;25.586;2023-12-20T04:32:24;100719.31;;;1.66;100.00
7832;BME280;3961;42.058;25.586;2023-12-20T04:34:50;100710.44;;;1.56;100.00
7832;BME280;3961;42.058;25.586;2023-12-20T04:37:15;100707.63;;;1.57;100.00
7832;BME280;3961;42.058;25.586;2023-12-20T04:39:41;100706.78;;;1.57;100.00
7832;BME280;3961;42.058;25.586;2023-12-20T04:42:07;100701.47;;;1.38;100.00
7832;BME280;3961;42.058;25.586;2023-12-20T04:44:32;100697.47;;;1.51;100.00
7832;BME280;3961;42.058;25.586;2023-12-20T04:46:58;100701.72;;;1.44;100.00
7832;BME280;3961;42.058;25.586;2023-12-20T04:49:23;100665.25;;;1.14;100.00
7832;BME280;3961;42.058;25.586;2023-12-20T04:51:49;100698.88;;;1.18;100.00
7832;BME280;3961;42.058;25.586;2023-12-20T04:54:14;100703.13;;;1.21;100.00
7832;BME280;3961;42.058;25.586;2023-12-20T04:56:41;100685.06;;;1.04;100.00
7832;BME280;3961;42.058;25.586;2023-12-20T04:59:06;100684.31;;;1.11;100.00
7832;BME280;3961;42.058;25.586;2023-12-20T05:01:32;100684.31;;;1.21;100.00
7832;BME280;3961;42.058;25.586;2023-12-20T05:03:57;100677.78;;;1.23;100.00
7832;BME280;3961;42.058;25.586;2023-12-20T05:06:23;100688.50;;;1.33;100.00
7832;BME280;3961;42.058;25.586;2023-12-20T05:08:49;100684.81;;;1.34;100.00
7832;BME280;3961;42.058;25.586;2023-12-20T05:11:15;100677.59;;;1.35;100.00
7832;BME280;3961;42.058;25.586;2023-12-20T05:13:41;100681.31;;;1.24;100.00
7832;BME280;3961;42.058;25.586;2023-12-20T05:16:06;100671.75;;;1.21;100.00
7832;BME280;3961;42.058;25.586;2023-12-20T05:18:32;100675.56;;;1.19;100.00
7832;BME280;3961;42.058;25.586;2023-12-20T05:20:58;100670.03;;;1.20;100.00
7832;BME280;3961;42.058;25.586;2023-12-20T05:23:24;100674.97;;;1.25;100.00
7832;BME280;3961;42.058;25.586;2023-12-20T05:25:49;100673.81;;;1.27;100.00
7832;BME280;3961;42.058;25.586;2023-12-20T05:28:15;100666.78;;;1.26;100.00
7832;BME280;3961;42.058;25.586;2023-12-20T05:30:40;100620.19;;;1.08;100.00
7832;BME280;3961;42.058;25.586;2023-12-20T05:33:06;100647.59;;;1.12;100.00
7832;BME280;3961;42.058;25.586;2023-12-20T05:35:31;100659.84;;;1.24;100.00
7832;BME280;3961;42.058;25.586;2023-12-20T05:37:57;100656.25;;;1.33;100.00
7832;BME280;3961;42.058;25.586;2023-12-20T05:40:22;100651.06;;;1.32;100.00
7832;BME280;3961;42.058;25.586;2023-12-20T05:42:48;100652.78;;;1.23;100.00
7832;BME280;3961;42.058;25.586;2023-12-20T05:45:14;100643.19;;;1.20;100.00
7832;BME280;3961;42.058;25.586;2023-12-20T05:47:40;100648.31;;;1.14;100.00
7832;BME280;3961;42.058;25.586;2023-12-20T05:50:06;100640.50;;;1.20;100.00
7832;BME280;3961;42.058;25.586;2023-12-20T05:52:31;100646.31;;;1.16;100.00
7832;BME280;3961;42.058;25.586;2023-12-20T05:54:57;100644.47;;;1.16;100.00
7832;BME280;3961;42.058;25.586;2023-12-20T05:57:26;100620.28;;;1.16;100.00
7832;BME280;3961;42.058;25.586;2023-12-20T05:59:52;100630.75;;;1.19;100.00
7832;BME280;3961;42.058;25.586;2023-12-20T06:02:17;100638.38;;;1.24;100.00
7832;BME280;3961;42.058;25.586;2023-12-20T06:04:43;100635.69;;;1.24;100.00
7832;BME280;3961;42.058;25.586;2023-12-20T06:07:11;100635.22;;;1.28;100.00
7832;BME280;3961;42.058;25.586;2023-12-20T06:09:37;100628.72;;;1.31;100.00
7832;BME280;3961;42.058;25.586;2023-12-20T06:12:02;100629.25;;;1.35;100.00
7832;BME280;3961;42.058;25.586;2023-12-20T06:14:28;100633.91;;;1.42;100.00
7832;BME280;3961;42.058;25.586;2023-12-20T06:16:56;100631.44;;;1.49;100.00
7832;BME280;3961;42.058;25.586;2023-12-20T06:19:21;100639.66;;;1.47;100.00
7832;BME280;3961;42.058;25.586;2023-12-20T06:21:47;100621.34;;;1.33;100.00
7832;BME280;3961;42.058;25.586;2023-12-20T06:24:12;100629.00;;;1.28;100.00
7832;BME280;3961;42.058;25.586;2023-12-20T06:26:38;100624.47;;;1.01;100.00
7832;BME280;3961;42.058;25.586;2023-12-20T06:29:03;100622.38;;;1.22;100.00
7832;BME280;3961;42.058;25.586;2023-12-20T06:31:29;100598.69;;;1.18;100.00
7832;BME280;3961;42.058;25.586;2023-12-20T06:33:54;100624.00;;;1.15;100.00
7832;BME280;3961;42.058;25.586;2023-12-20T06:36:25;100630.31;;;1.24;100.00
7832;BME280;3961;42.058;25.586;2023-12-20T06:38:51;100631.44;;;1.49;100.00
7832;BME280;3961;42.058;25.586;2023-12-20T06:41:16;100619.97;;;1.56;100.00
7832;BME280;3961;42.058;25.586;2023-12-20T06:43:42;100628.66;;;1.68;100.00
7832;BME280;3961;42.058;25.586;2023-12-20T06:46:08;100624.72;;;1.62;100.00
7832;BME280;3961;42.058;25.586;2023-12-20T06:48:34;100620.03;;;1.64;100.00
7832;BME280;3961;42.058;25.586;2023-12-20T06:51:00;100626.84;;;1.59;100.00
7832;BME280;3961;42.058;25.586;2023-12-20T06:53:27;100632.06;;;1.43;100.00
7832;BME280;3961;42.058;25.586;2023-12-20T06:55:53;100626.50;;;1.26;100.00
7832;BME280;3961;42.058;25.586;2023-12-20T06:58:18;100624.22;;;1.49;100.00
7832;BME280;3961;42.058;25.586;2023-12-20T07:00:44;100616.09;;;1.59;100.00
7832;BME280;3961;42.058;25.586;2023-12-20T07:03:09;100626.31;;;1.55;100.00
7832;BME280;3961;42.058;25.586;2023-12-20T07:05:35;100622.34;;;2.12;100.00
7832;BME280;3961;42.058;25.586;2023-12-20T07:08:00;100625.69;;;3.02;100.00
7832;BME280;3961;42.058;25.586;2023-12-20T07:10:26;100619.66;;;2.48;100.00
7832;BME280;3961;42.058;25.586;2023-12-20T07:12:51;100625.91;;;2.74;100.00
7832;BME280;3961;42.058;25.586;2023-12-20T07:15:20;100625.44;;;2.87;100.00
7832;BME280;3961;42.058;25.586;2023-12-20T07:17:46;100620.88;;;3.47;100.00
7832;BME280;3961;42.058;25.586;2023-12-20T07:20:12;100596.78;;;3.04;100.00
7832;BME280;3961;42.058;25.586;2023-12-20T07:22:38;100600.44;;;2.94;100.00
7832;BME280;3961;42.058;25.586;2023-12-20T07:25:04;100596.75;;;2.95;100.00
7832;BME280;3961;42.058;25.586;2023-12-20T07:27:30;100598.13;;;3.08;100.00
7832;BME280;3961;42.058;25.586;2023-12-20T07:29:56;100600.22;;;3.22;100.00
7832;BME280;3961;42.058;25.586;2023-12-20T07:32:21;100595.34;;;3.25;100.00
7832;BME280;3961;42.058;25.586;2023-12-20T07:34:47;100586.22;;;3.10;100.00
7832;BME280;3961;42.058;25.586;2023-12-20T07:37:12;100600.31;;;3.38;100.00
7832;BME280;3961;42.058;25.586;2023-12-20T07:39:41;100582.75;;;3.34;100.00
7832;BME280;3961;42.058;25.586;2023-12-20T07:42:08;100589.63;;;3.87;100.00
7832;BME280;3961;42.058;25.586;2023-12-20T07:44:34;100587.59;;;3.97;100.00
7832;BME280;3961;42.058;25.586;2023-12-20T07:47:01;100586.09;;;4.02;100.00
7832;BME280;3961;42.058;25.586;2023-12-20T07:49:27;100585.59;;;3.99;100.00
7832;BME280;3961;42.058;25.586;2023-12-20T07:51:53;100576.84;;;4.13;100.00
7832;BME280;3961;42.058;25.586;2023-12-20T07:54:18;100584.78;;;4.39;100.00
7832;BME280;3961;42.058;25.586;2023-12-20T07:56:44;100584.25;;;4.51;98.88
7832;BME280;3961;42.058;25.586;2023-12-20T07:59:10;100572.78;;;4.57;100.00
7832;BME280;3961;42.058;25.586;2023-12-20T08:01:35;100563.31;;;4.70;97.67
7832;BME280;3961;42.058;25.586;2023-12-20T08:04:01;100565.66;;;4.81;96.47
7832;BME280;3961;42.058;25.586;2023-12-20T08:06:27;100574.34;;;4.99;95.62
7832;BME280;3961;42.058;25.586;2023-12-20T08:08:52;100564.56;;;4.98;95.90
7832;BME280;3961;42.058;25.586;2023-12-20T08:11:18;100571.28;;;5.10;99.63
7832;BME280;3961;42.058;25.586;2023-12-20T08:13:43;100556.09;;;5.40;100.00
7832;BME280;3961;42.058;25.586;2023-12-20T08:16:09;100560.56;;;5.33;98.47
7832;BME280;3961;42.058;25.586;2023-12-20T08:18:35;100557.38;;;5.21;99.12
7832;BME280;3961;42.058;25.586;2023-12-20T08:21:01;100557.75;;;5.18;97.37
7832;BME280;3961;42.058;25.586;2023-12-20T08:23:27;100556.31;;;5.38;97.73
7832;BME280;3961;42.058;25.586;2023-12-20T08:25:53;100547.78;;;5.49;97.65
7832;BME280;3961;42.058;25.586;2023-12-20T08:28:18;100550.28;;;5.59;97.20
7832;BME280;3961;42.058;25.586;2023-12-20T08:30:44;100542.16;;;5.82;95.09
7832;BME280;3961;42.058;25.586;2023-12-20T08:33:10;100545.06;;;5.80;94.18
7832;BME280;3961;42.058;25.586;2023-12-20T08:35:41;100541.13;;;5.91;94.05
7832;BME280;3961;42.058;25.586;2023-12-20T08:38:06;100534.16;;;5.97;93.60
7832;BME280;3961;42.058;25.586;2023-12-20T08:40:32;100532.03;;;6.07;93.87
7832;BME280;3961;42.058;25.586;2023-12-20T08:42:58;100532.25;;;6.20;94.46
7832;BME280;3961;42.058;25.586;2023-12-20T08:45:23;100526.00;;;6.19;94.40
7832;BME280;3961;42.058;25.586;2023-12-20T08:47:50;100525.41;;;6.61;96.91
7832;BME280;3961;42.058;25.586;2023-12-20T08:50:15;100519.81;;;6.48;95.62
7832;BME280;3961;42.058;25.586;2023-12-20T08:52:41;100488.47;;;6.16;95.54
7832;BME280;3961;42.058;25.586;2023-12-20T08:55:07;100500.44;;;6.22;96.70
7832;BME280;3961;42.058;25.586;2023-12-20T08:57:34;100502.22;;;6.29;99.59
7832;BME280;3961;42.058;25.586;2023-12-20T09:00:00;100479.47;;;6.39;98.37
7832;BME280;3961;42.058;25.586;2023-12-20T09:02:26;100486.19;;;6.72;98.56
7832;BME280;3961;42.058;25.586;2023-12-20T09:04:51;100480.59;;;6.44;97.65
7832;BME280;3961;42.058;25.586;2023-12-20T09:07:23;100479.19;;;6.63;96.83
7832;BME280;3961;42.058;25.586;2023-12-20T09:09:49;100456.09;;;6.67;96.65
7832;BME280;3961;42.058;25.586;2023-12-20T09:12:14;100468.72;;;6.74;96.39
7832;BME280;3961;42.058;25.586;2023-12-20T09:14:40;100458.09;;;6.58;95.70
7832;BME280;3961;42.058;25.586;2023-12-20T09:17:06;100446.75;;;6.40;97.22
7832;BME280;3961;42.058;25.586;2023-12-20T09:19:34;100442.19;;;6.26;98.43
7832;BME280;3961;42.058;25.586;2023-12-20T09:21:59;100434.63;;;6.21;100.00
7832;BME280;3961;42.058;25.586;2023-12-20T09:24:25;100430.25;;;6.35;98.90
7832;BME280;3961;42.058;25.586;2023-12-20T09:26:50;100424.75;;;6.43;99.57
7832;BME280;3961;42.058;25.586;2023-12-20T09:29:16;100427.66;;;6.71;97.74
7832;BME280;3961;42.058;25.586;2023-12-20T09:31:42;100414.56;;;6.74;97.97
7832;BME280;3961;42.058;25.586;2023-12-20T09:34:09;100414.38;;;6.61;98.01
7832;BME280;3961;42.058;25.586;2023-12-20T09:36:34;100410.34;;;6.57;99.28
7832;BME280;3961;42.058;25.586;2023-12-20T09:39:02;100404.19;;;6.63;99.62
7832;BME280;3961;42.058;25.586;2023-12-20T09:41:31;100392.88;;;6.74;100.00
7832;BME280;3961;42.058;25.586;2023-12-20T09:44:01;100389.53;;;7.08;100.00
7832;BME280;3961;42.058;25.586;2023-12-20T09:46:28;100387.50;;;6.96;97.08
7832;BME280;3961;42.058;25.586;2023-12-20T09:48:59;100381.63;;;6.92;98.40
7832;BME280;3961;42.058;25.586;2023-12-20T09:51:28;100374.13;;;6.94;98.25
7832;BME280;3961;42.058;25.586;2023-12-20T09:53:54;100368.81;;;7.01;98.38
7832;BME280;3961;42.058;25.586;2023-12-20T09:56:21;100366.59;;;6.90;98.33
7832;BME280;3961;42.058;25.586;2023-12-20T09:58:47;100365.31;;;6.86;98.77
7832;BME280;3961;42.058;25.586;2023-12-20T10:01:14;100365.13;;;6.87;99.57
7832;BME280;3961;42.058;25.586;2023-12-20T10:03:40;100358.94;;;7.14;98.65
7832;BME280;3961;42.058;25.586;2023-12-20T10:06:06;100356.47;;;7.41;98.25
7832;BME280;3961;42.058;25.586;2023-12-20T10:08:32;100351.78;;;7.49;95.51
7832;BME280;3961;42.058;25.586;2023-12-20T10:10:58;100335.16;;;7.59;94.25
7832;BME280;3961;42.058;25.586;2023-12-20T10:13:27;100334.69;;;7.77;93.54
7832;BME280;3961;42.058;25.586;2023-12-20T10:15:55;100329.75;;;7.87;92.59
7832;BME280;3961;42.058;25.586;2023-12-20T10:18:20;100336.44;;;7.91;94.66
7832;BME280;3961;42.058;25.586;2023-12-20T10:20:46;100325.22;;;8.00;93.83
7832;BME280;3961;42.058;25.586;2023-12-20T10:23:12;100304.53;;;7.93;94.61
7832;BME280;3961;42.058;25.586;2023-12-20T10:25:39;100315.53;;;8.19;94.26
7832;BME280;3961;42.058;25.586;2023-12-20T10:28:10;100316.56;;;8.18;93.34
7832;BME280;3961;42.058;25.586;2023-12-20T10:30:36;100316.03;;;8.36;93.36
7832;BME280;3961;42.058;25.586;2023-12-20T10:33:02;100303.75;;;8.40;94.18
7832;BME280;3961;42.058;25.586;2023-12-20T10:35:28;100300.44;;;8.44;91.82
7832;BME280;3961;42.058;25.586;2023-12-20T10:37:56;100296.06;;;8.50;92.20
7832;BME280;3961;42.058;25.586;2023-12-20T10:40:22;100292.13;;;8.59;91.06
7832;BME280;3961;42.058;25.586;2023-12-20T10:42:49;100288.31;;;8.47;91.64
7832;BME280;3961;42.058;25.586;2023-12-20T10:45:16;100290.06;;;8.61;91.72
7832;BME280;3961;42.058;25.586;2023-12-20T10:47:46;100284.38;;;8.63;90.67
7832;BME280;3961;42.058;25.586;2023-12-20T10:50:12;100270.34;;;8.53;91.15
7832;BME280;3961;42.058;25.586;2023-12-20T10:52:37;100265.00;;;8.79;91.53
7832;BME280;3961;42.058;25.586;2023-12-20T10:55:04;100260.84;;;8.89;91.50
7832;BME280;3961;42.058;25.586;2023-12-20T10:57:30;100258.38;;;9.08;90.86
7832;BME280;3961;42.058;25.586;2023-12-20T11:00:00;100250.59;;;9.05;92.97
7832;BME280;3961;42.058;25.586;2023-12-20T11:02:28;100247.69;;;9.06;94.18
7832;BME280;3961;42.058;25.586;2023-12-20T11:07:53;100228.44;;;9.08;91.21
7832;BME280;3961;42.058;25.586;2023-12-20T11:10:26;100227.41;;;9.09;90.47
7832;BME280;3961;42.058;25.586;2023-12-20T11:13:36;100227.59;;;9.20;91.31
7832;BME280;3961;42.058;25.586;2023-12-20T11:16:03;100208.56;;;9.27;93.14
7832;BME280;3961;42.058;25.586;2023-12-20T11:18:30;100220.91;;;9.36;92.87
7832;BME280;3961;42.058;25.586;2023-12-20T11:21:00;100212.75;;;9.49;92.27
7832;BME280;3961;42.058;25.586;2023-12-20T11:23:27;100206.66;;;9.47;92.24
7832;BME280;3961;42.058;25.586;2023-12-20T11:25:56;100206.06;;;9.32;94.25
7832;BME280;3961;42.058;25.586;2023-12-20T11:28:26;100195.38;;;9.50;92.44
7832;BME280;3961;42.058;25.586;2023-12-20T11:33:23;100179.25;;;9.42;93.01
7832;BME280;3961;42.058;25.586;2023-12-20T11:35:49;100194.31;;;9.45;91.42
7832;BME280;3961;42.058;25.586;2023-12-20T11:38:15;100165.06;;;9.27;92.11
7832;BME280;3961;42.058;25.586;2023-12-20T11:40:44;100179.91;;;9.31;93.40
7832;BME280;3961;42.058;25.586;2023-12-20T11:43:09;100176.16;;;9.19;94.24
7832;BME280;3961;42.058;25.586;2023-12-20T11:45:35;100177.59;;;9.15;93.66
7832;BME280;3961;42.058;25.586;2023-12-20T11:48:02;100168.84;;;9.19;93.04
7832;BME280;3961;42.058;25.586;2023-12-20T11:50:28;100170.28;;;9.15;93.02
7832;BME280;3961;42.058;25.586;2023-12-20T11:52:55;100150.25;;;9.03;94.24
7832;BME280;3961;42.058;25.586;2023-12-20T11:55:21;100154.84;;;9.09;96.08
7832;BME280;3961;42.058;25.586;2023-12-20T11:57:47;100158.38;;;8.90;97.21
7832;BME280;3961;42.058;25.586;2023-12-20T12:00:13;100146.47;;;8.91;98.40
7832;BME280;3961;42.058;25.586;2023-12-20T12:02:39;100142.28;;;8.95;97.66
7832;BME280;3961;42.058;25.586;2023-12-20T12:05:05;100137.69;;;8.96;98.83
7832;BME280;3961;42.058;25.586;2023-12-20T12:07:31;100127.22;;;8.99;98.51
7832;BME280;3961;42.058;25.586;2023-12-20T12:09:57;100124.28;;;9.07;97.50
7832;BME280;3961;42.058;25.586;2023-12-20T12:12:24;100124.28;;;9.07;97.44
7832;BME280;3961;42.058;25.586;2023-12-20T12:14:50;100122.59;;;9.13;96.70
7832;BME280;3961;42.058;25.586;2023-12-20T12:17:16;100120.09;;;9.05;95.83
7832;BME280;3961;42.058;25.586;2023-12-20T12:19:43;100118.00;;;9.20;95.31
7832;BME280;3961;42.058;25.586;2023-12-20T12:22:15;100120.28;;;9.23;94.82
7832;BME280;3961;42.058;25.586;2023-12-20T12:24:46;100099.78;;;9.20;95.25
7832;BME280;3961;42.058;25.586;2023-12-20T12:27:16;100108.97;;;9.26;93.57
7832;BME280;3961;42.058;25.586;2023-12-20T12:30:00;100100.97;;;9.51;93.66
7832;BME280;3961;42.058;25.586;2023-12-20T12:32:26;100104.25;;;9.66;92.78
7832;BME280;3961;42.058;25.586;2023-12-20T12:34:52;100058.50;;;9.43;92.09
7832;BME280;3961;42.058;25.586;2023-12-20T12:37:18;100105.47;;;9.83;89.51
7832;BME280;3961;42.058;25.586;2023-12-20T12:39:43;100096.41;;;9.89;89.23
7832;BME280;3961;42.058;25.586;2023-12-20T12:42:09;100094.50;;;9.90;90.22
7832;BME280;3961;42.058;25.586;2023-12-20T12:44:34;100081.34;;;9.87;90.18
7832;BME280;3961;42.058;25.586;2023-12-20T12:47:00;100059.38;;;9.82;88.33
7832;BME280;3961;42.058;25.586;2023-12-20T12:49:28;100083.69;;;9.83;87.98
7832;BME280;3961;42.058;25.586;2023-12-20T12:51:54;100077.16;;;9.84;88.50
7832;BME280;3961;42.058;25.586;2023-12-20T12:54:23;100070.69;;;9.79;87.82
7832;BME280;3961;42.058;25.586;2023-12-20T12:56:49;100067.94;;;9.85;86.24
7832;BME280;3961;42.058;25.586;2023-12-20T12:59:16;100064.44;;;9.78;86.94
7832;BME280;3961;42.058;25.586;2023-12-20T13:01:42;100060.88;;;9.78;86.19
7832;BME280;3961;42.058;25.586;2023-12-20T13:04:08;100064.81;;;9.88;86.14